Time;durP1;ratioP1;P1;durP2;ratioP2;P2;SDS_P1;SDS_P2;PMS_P1;PMS_P2;Temp;Humidity;BMP_temperature;BMP_pressure;BME280_temperature;BME280_humidity;BME280_pressure;Samples;Min_cycle;Max_cycle;Signal;HPM_P1;HPM_P2
2022/09/13 00:01:00;;;;;;;;;7.00;6.75;;;;;24.83;46.75;100200.88;5089774;27;45806;-86
2022/09/13 00:03:26;;;;;;;;;8.75;8.25;;;;;24.73;46.68;100178.25;5073530;28;48041;-87
2022/09/13 00:05:51;;;;;;;;;9.50;8.75;;;;;24.95;46.68;100219.84;5089216;27;48395;-86
2022/09/13 00:08:17;;;;;;;;;7.00;6.25;;;;;24.84;46.54;100209.75;5073369;28;46077;-86
2022/09/13 00:10:43;;;;;;;;;10.25;8.00;;;;;24.81;46.47;100200.31;5072978;28;46094;-86
2022/09/13 00:13:11;;;;;;;;;8.00;7.00;;;;;24.87;46.51;100222.75;5072312;28;48734;-85
2022/09/13 00:15:42;;;;;;;;;6.00;6.00;;;;;24.86;46.19;100242.53;5072224;27;48171;-86
2022/09/13 00:18:07;;;;;;;;;7.25;7.00;;;;;24.66;46.27;100213.13;5069289;28;45659;-86
2022/09/13 00:20:33;;;;;;;;;9.00;9.00;;;;;24.64;46.77;100218.69;5083372;27;45956;-87
2022/09/13 00:22:58;;;;;;;;;7.25;7.25;;;;;24.78;46.64;100232.06;5071788;28;48495;-84
2022/09/13 00:25:24;;;;;;;;;7.00;7.00;;;;;24.64;46.37;100207.16;5072891;27;45962;-86
2022/09/13 00:27:49;;;;;;;;;8.00;7.50;;;;;24.48;46.98;100178.13;5088694;27;45977;-86
2022/09/13 00:30:16;;;;;;;;;8.00;7.25;;;;;24.72;46.71;100220.34;5071583;28;45719;-86
2022/09/13 00:32:41;;;;;;;;;8.50;7.25;;;;;24.38;46.71;100165.19;5070261;27;48507;-87
2022/09/13 00:35:07;;;;;;;;;8.00;7.00;;;;;24.41;47.01;100167.44;5072691;27;45664;-86
2022/09/13 00:37:33;;;;;;;;;7.00;7.00;;;;;24.59;46.84;100188.19;5072619;28;46147;-87
2022/09/13 00:39:59;;;;;;;;;7.00;7.00;;;;;24.58;46.64;100175.84;5074536;28;46037;-87
2022/09/13 00:42:31;;;;;;;;;9.25;7.00;;;;;24.64;46.78;100191.91;5091223;27;47975;-86
2022/09/13 00:45:06;;;;;;;;;8.75;7.00;;;;;24.63;46.92;100181.38;5072545;28;47237;-86
2022/09/13 00:47:34;;;;;;;;;8.00;7.00;;;;;24.63;46.70;100184.88;5090642;27;45746;-86
2022/09/13 00:50:23;;;;;;;;;7.25;6.25;;;;;24.58;46.78;100173.97;5088133;27;46067;-85
2022/09/13 00:52:59;;;;;;;;;8.00;7.00;;;;;24.63;47.16;100186.75;5088188;27;48635;-87
2022/09/13 00:55:54;;;;;;;;;6.50;6.50;;;;;24.62;47.32;100196.63;5071147;28;48266;-86
2022/09/13 00:58:32;;;;;;;;;10.00;10.00;;;;;24.48;47.09;100164.75;5071853;28;45654;-88
2022/09/13 01:00:58;;;;;;;;;10.75;10.25;;;;;24.14;47.10;100112.25;5073659;28;45587;-88
2022/09/13 01:03:29;;;;;;;;;8.25;8.25;;;;;24.35;46.96;100146.00;5069606;28;48297;-87
2022/09/13 01:06:09;;;;;;;;;8.50;8.00;;;;;24.31;47.15;100142.09;5069129;28;47352;-88
2022/09/13 01:08:38;;;;;;;;;8.50;8.25;;;;;24.37;47.15;100144.78;5076464;27;46078;-86
2022/09/13 01:11:10;;;;;;;;;10.25;10.00;;;;;24.45;47.28;100151.78;5075538;28;45725;-86
2022/09/13 01:13:37;;;;;;;;;11.50;11.25;;;;;24.52;47.15;100152.56;5092504;27;47344;-87
2022/09/13 01:16:03;;;;;;;;;12.00;11.50;;;;;24.37;46.85;100126.03;5091852;27;48419;-88
2022/09/13 01:18:30;;;;;;;;;13.00;13.00;;;;;24.49;47.00;100134.25;5075270;28;46318;-88
2022/09/13 01:21:24;;;;;;;;;11.50;11.50;;;;;24.63;47.23;100160.78;5075708;28;45903;-87
2022/09/13 01:24:27;;;;;;;;;16.50;14.75;;;;;24.63;47.25;100163.44;5074995;28;47433;-89
2022/09/13 01:27:43;;;;;;;;;13.25;12.50;;;;;24.62;47.20;100161.78;5075045;27;47520;-87
2022/09/13 01:30:19;;;;;;;;;16.75;13.25;;;;;24.61;47.39;100157.50;5051550;28;45629;-87
2022/09/13 01:33:03;;;;;;;;;17.25;15.00;;;;;24.60;47.16;100158.53;5070229;28;47042;-87
2022/09/13 01:35:55;;;;;;;;;16.25;14.25;;;;;24.61;47.46;100162.03;5077213;28;48494;-88
2022/09/13 01:38:37;;;;;;;;;18.00;16.00;;;;;24.61;47.56;100159.34;5077389;28;48407;-86
2022/09/13 01:41:21;;;;;;;;;14.00;13.25;;;;;24.61;47.58;100154.81;5077445;28;45511;-87
2022/09/13 01:44:07;;;;;;;;;11.00;10.00;;;;;24.48;47.67;100122.69;5101512;27;45728;-87
2022/09/13 01:46:49;;;;;;;;;15.00;15.00;;;;;24.46;47.61;100132.78;5088842;28;45553;-88
2022/09/13 01:49:36;;;;;;;;;16.00;14.00;;;;;24.54;47.39;100131.75;5086475;28;47110;-87
2022/09/13 01:52:14;;;;;;;;;15.50;11.50;;;;;24.50;47.48;100123.31;5075150;28;45901;-86
2022/09/13 01:55:04;;;;;;;;;22.25;19.50;;;;;24.61;47.47;100137.91;5075612;28;45921;-87
2022/09/13 01:57:39;;;;;;;;;24.50;21.25;;;;;24.62;47.43;100135.00;5073424;28;47213;-88
2022/09/13 02:00:08;;;;;;;;;23.75;21.25;;;;;24.61;47.46;100133.38;5091426;27;47432;-87
2022/09/13 02:02:49;;;;;;;;;28.00;23.50;;;;;24.61;47.78;100127.19;5073960;28;45892;-87
2022/09/13 02:05:22;;;;;;;;;25.00;22.75;;;;;24.62;47.53;100134.19;5068823;28;45915;-87
2022/09/13 02:08:34;;;;;;;;;26.50;23.00;;;;;24.58;47.43;100125.75;5096311;27;48789;-88
2022/09/13 02:11:13;;;;;;;;;21.00;20.00;;;;;24.41;47.78;100097.78;5083734;28;47907;-89
2022/09/13 02:14:01;;;;;;;;;14.25;13.50;;;;;24.55;47.43;100126.19;5084811;27;46721;-87
2022/09/13 02:16:37;;;;;;;;;16.50;13.25;;;;;24.53;48.05;100127.41;5076694;28;46049;-88
2022/09/13 02:19:12;;;;;;;;;16.25;13.00;;;;;24.38;47.68;100100.06;5093700;27;47798;-87
2022/09/13 02:21:43;;;;;;;;;13.50;12.75;;;;;24.23;48.06;100076.22;5077161;27;47454;-86
2022/09/13 02:24:16;;;;;;;;;16.25;11.25;;;;;24.17;47.86;100074.38;5081668;28;45665;-87
2022/09/13 02:26:45;;;;;;;;;10.75;10.75;;;;;24.35;48.01;100108.50;5077885;27;45734;-87
2022/09/13 02:29:16;;;;;;;;;10.00;9.00;;;;;24.41;47.69;100111.19;5079661;28;47944;-87
2022/09/13 02:31:57;;;;;;;;;9.00;8.75;;;;;24.38;47.80;100108.94;5096558;27;47417;-86
2022/09/13 02:34:48;;;;;;;;;8.25;7.75;;;;;24.15;47.64;100081.78;5079181;28;45785;-87
2022/09/13 02:37:14;;;;;;;;;9.00;8.00;;;;;24.09;47.77;100066.53;5085793;27;46082;-88
2022/09/13 02:39:46;;;;;;;;;7.25;6.25;;;;;24.30;47.55;100097.63;5075934;28;47368;-87
2022/09/13 02:42:21;;;;;;;;;8.50;7.50;;;;;24.09;48.08;100079.94;5092120;27;47062;-87
2022/09/13 02:44:57;;;;;;;;;7.25;6.75;;;;;24.14;47.97;100080.94;5077601;28;45709;-88
2022/09/13 02:47:44;;;;;;;;;4.75;4.75;;;;;24.26;48.21;100099.91;5097242;27;45323;-87
2022/09/13 02:50:15;;;;;;;;;8.00;7.00;;;;;24.24;47.66;100097.41;5082055;28;45768;-88
2022/09/13 02:53:00;;;;;;;;;7.00;6.00;;;;;24.24;48.24;100088.56;5077349;28;47646;-85
2022/09/13 02:56:03;;;;;;;;;5.25;5.00;;;;;24.23;48.26;100094.97;5066035;28;45761;-87
2022/09/13 02:58:45;;;;;;;;;6.50;6.00;;;;;23.94;48.21;100048.06;5076548;28;45893;-86
2022/09/13 03:01:12;;;;;;;;;4.75;4.75;;;;;24.10;47.82;100081.56;5074410;28;46079;-88
2022/09/13 03:03:37;;;;;;;;;6.50;6.50;;;;;24.14;48.00;100091.66;5075963;28;45877;-87
2022/09/13 03:06:03;;;;;;;;;6.75;5.75;;;;;23.88;48.24;100045.38;5091978;27;45853;-89
2022/09/13 03:08:29;;;;;;;;;6.00;5.00;;;;;23.97;47.79;100058.34;5093246;27;45774;-88
2022/09/13 03:11:04;;;;;;;;;6.50;6.00;;;;;24.19;47.79;100080.34;5093279;27;49242;-87
2022/09/13 03:13:53;;;;;;;;;6.00;6.00;;;;;23.90;48.12;100046.84;5078262;28;47351;-87
2022/09/13 03:16:27;;;;;;;;;7.00;6.00;;;;;24.19;47.96;100089.19;5076856;27;46080;-88
2022/09/13 03:19:16;;;;;;;;;6.00;5.75;;;;;23.88;48.35;100032.84;5078384;27;46013;-86
2022/09/13 03:21:54;;;;;;;;;5.75;5.75;;;;;24.19;47.84;100078.50;5065699;28;48843;-88
2022/09/13 03:24:27;;;;;;;;;8.50;7.50;;;;;24.15;48.37;100071.88;5075634;28;48237;-89
2022/09/13 03:27:05;;;;;;;;;8.00;6.00;;;;;24.20;47.91;100079.31;5060086;28;45806;-87
2022/09/13 03:29:54;;;;;;;;;8.00;7.00;;;;;24.21;48.18;100084.47;5076050;28;45626;-89
2022/09/13 03:32:44;;;;;;;;;7.75;7.50;;;;;24.21;48.46;100081.78;5073637;28;48444;-87
2022/09/13 03:35:24;;;;;;;;;6.50;6.50;;;;;24.09;48.22;100082.59;5093597;27;46479;-86
2022/09/13 03:38:31;;;;;;;;;6.75;5.75;;;;;24.19;48.39;100091.88;5064386;28;45764;-87
2022/09/13 03:41:12;;;;;;;;;5.75;5.25;;;;;24.20;48.11;100095.38;5052153;28;46040;-88
2022/09/13 03:43:50;;;;;;;;;7.00;6.50;;;;;23.94;48.14;100060.63;5051761;28;45859;-88
2022/09/13 03:46:46;;;;;;;;;5.25;4.75;;;;;24.07;48.35;100082.00;5041577;28;47856;-87
2022/09/13 03:49:16;;;;;;;;;7.50;6.75;;;;;24.16;48.35;100107.50;5034263;28;45790;-89
2022/09/13 03:51:46;;;;;;;;;5.75;5.00;;;;;23.97;48.61;100070.91;5036194;28;45826;-88
2022/09/13 03:54:28;;;;;;;;;7.50;6.00;;;;;24.10;48.82;100095.78;5052131;28;47850;-88
2022/09/13 03:57:15;;;;;;;;;6.50;5.00;;;;;24.07;48.91;100084.69;5034586;28;47109;-88
2022/09/13 03:59:54;;;;;;;;;5.50;5.00;;;;;23.72;48.54;100039.44;5034064;28;45865;-87
2022/09/13 04:02:22;;;;;;;;;5.25;5.25;;;;;24.03;48.62;100086.94;5032158;28;45729;-89
2022/09/13 04:04:48;;;;;;;;;5.00;5.00;;;;;24.01;48.85;100099.72;5035518;28;48240;-88
2022/09/13 04:07:19;;;;;;;;;5.25;4.50;;;;;24.00;48.64;100102.59;5035354;28;46118;-89
2022/09/13 04:09:45;;;;;;;;;6.00;5.00;;;;;23.83;48.80;100078.13;5061968;28;46135;-86
2022/09/13 04:12:13;;;;;;;;;7.00;6.00;;;;;23.96;48.72;100099.53;5055467;28;46024;-87
2022/09/13 04:14:39;;;;;;;;;5.00;5.00;;;;;23.95;49.28;100095.19;5054588;28;46554;-87
2022/09/13 04:17:06;;;;;;;;;3.00;2.00;;;;;23.82;48.82;100068.44;5106986;27;47093;-86
2022/09/13 04:19:32;;;;;;;;;5.00;4.75;;;;;23.81;49.26;100058.78;5085252;27;45573;-87
2022/09/13 04:21:57;;;;;;;;;5.00;4.75;;;;;23.93;49.00;100075.84;5077361;28;45589;-88
2022/09/13 04:24:28;;;;;;;;;5.25;5.25;;;;;23.80;48.88;100070.53;5075619;28;45705;-86
2022/09/13 04:26:54;;;;;;;;;5.25;4.50;;;;;23.36;48.74;100012.31;5069016;27;47897;-90
2022/09/13 04:29:21;;;;;;;;;6.00;5.25;;;;;23.79;48.90;100099.13;5072092;28;46052;-88
2022/09/13 04:31:49;;;;;;;;;5.00;4.75;;;;;23.83;49.01;100104.88;5070832;28;45858;-85
2022/09/13 04:34:15;;;;;;;;;4.50;4.00;;;;;23.67;49.33;100059.84;5071273;28;47435;-86
2022/09/13 04:36:41;;;;;;;;;5.25;5.25;;;;;23.56;49.10;100042.56;5071958;28;48388;-86
2022/09/13 04:39:06;;;;;;;;;4.75;4.75;;;;;23.72;48.97;100071.56;5071839;28;45722;-86
2022/09/13 04:41:33;;;;;;;;;6.25;5.75;;;;;23.70;49.22;100072.78;5071283;28;45861;-86
2022/09/13 04:43:59;;;;;;;;;4.75;4.00;;;;;23.63;49.72;100067.47;5072581;28;47923;-85
2022/09/13 04:46:26;;;;;;;;;6.50;5.00;;;;;23.63;49.51;100077.34;5073102;27;46253;-85
2022/09/13 04:48:52;;;;;;;;;5.00;5.00;;;;;23.51;49.16;100052.22;5089488;27;45748;-87
2022/09/13 04:51:18;;;;;;;;;6.00;6.00;;;;;23.79;49.54;100109.00;5073505;28;45657;-87
2022/09/13 04:53:45;;;;;;;;;7.25;7.25;;;;;23.77;50.46;100105.72;5074945;27;45750;-86
2022/09/13 04:56:14;;;;;;;;;8.50;8.50;;;;;23.47;50.76;100067.03;5074764;27;45670;-85
2022/09/13 04:58:40;;;;;;;;;7.00;6.50;;;;;23.66;50.69;100109.00;5062986;28;45628;-86
2022/09/13 05:01:08;;;;;;;;;5.50;5.50;;;;;23.53;51.45;100101.00;5073611;28;45792;-85
2022/09/13 05:03:35;;;;;;;;;6.00;4.25;;;;;23.58;50.94;100102.03;5089791;27;48041;-85
2022/09/13 05:06:05;;;;;;;;;4.50;4.50;;;;;23.56;50.67;100097.91;5074733;27;45664;-86
2022/09/13 05:08:31;;;;;;;;;6.25;5.00;;;;;23.36;50.38;100058.59;5070235;28;45909;-86
2022/09/13 05:10:57;;;;;;;;;5.25;5.00;;;;;23.36;50.66;100061.25;5067156;28;45617;-85
2022/09/13 05:13:23;;;;;;;;;4.00;4.00;;;;;23.43;50.83;100090.66;5071806;27;45754;-80
2022/09/13 05:15:48;;;;;;;;;5.75;5.25;;;;;23.35;51.10;100105.06;5070844;27;46152;-81
2022/09/13 05:18:14;;;;;;;;;6.25;5.50;;;;;23.33;50.75;100130.34;5071717;27;45926;-77
2022/09/13 05:20:39;;;;;;;;;5.75;4.50;;;;;23.31;51.13;100145.78;5070868;27;45583;-77
2022/09/13 05:23:04;;;;;;;;;1.00;0.00;;;;;23.19;50.98;100134.03;5071624;27;46919;-76
2022/09/13 05:25:30;;;;;;;;;4.00;4.00;;;;;23.11;51.05;100115.50;5071341;27;46548;-79
2022/09/13 05:27:55;;;;;;;;;4.75;4.50;;;;;23.01;51.76;100100.69;5070442;28;45924;-76
2022/09/13 05:30:20;;;;;;;;;5.75;5.50;;;;;22.97;51.59;100106.63;5071474;27;45830;-75
2022/09/13 05:32:46;;;;;;;;;4.25;4.25;;;;;22.95;51.70;100116.69;5070659;27;45899;-77
2022/09/13 05:35:12;;;;;;;;;5.00;5.00;;;;;22.92;52.21;100101.91;5070972;27;47282;-77
2022/09/13 05:37:38;;;;;;;;;6.00;5.75;;;;;22.95;52.23;100098.81;5070901;27;45602;-77
2022/09/13 05:40:03;;;;;;;;;6.00;5.75;;;;;22.90;52.82;100108.44;5069735;28;46407;-78
2022/09/13 05:42:29;;;;;;;;;4.25;4.00;;;;;22.81;52.55;100101.66;5070553;27;47258;-78
2022/09/13 05:44:54;;;;;;;;;2.00;2.00;;;;;22.85;52.85;100116.25;5071786;28;46113;-77
2022/09/13 05:47:20;;;;;;;;;5.00;5.00;;;;;22.82;52.44;100119.31;5074684;27;45925;-77
2022/09/13 05:49:45;;;;;;;;;5.25;5.00;;;;;22.75;53.31;100115.81;5074120;27;45625;-78
2022/09/13 05:52:10;;;;;;;;;6.00;6.00;;;;;22.75;52.82;100116.63;5073491;27;46556;-76
2022/09/13 05:54:36;;;;;;;;;5.25;5.25;;;;;22.71;53.72;100120.72;5074731;27;46090;-78
2022/09/13 05:57:02;;;;;;;;;6.75;6.00;;;;;22.64;53.84;100111.81;5061613;27;45934;-77
2022/09/13 05:59:28;;;;;;;;;6.00;5.50;;;;;22.66;53.50;100107.13;5056665;28;45600;-77
2022/09/13 06:01:53;;;;;;;;;6.00;5.75;;;;;22.58;53.20;100091.25;5073396;27;46576;-78
2022/09/13 06:04:18;;;;;;;;;7.00;6.00;;;;;22.63;53.64;100102.16;5074440;27;47016;-77
2022/09/13 06:06:44;;;;;;;;;7.75;6.75;;;;;22.65;53.30;100097.44;5073271;28;45987;-76
2022/09/13 06:09:11;;;;;;;;;6.25;6.00;;;;;22.67;53.71;100102.59;5074701;27;45798;-79
2022/09/13 06:11:36;;;;;;;;;5.00;5.00;;;;;22.66;53.93;100101.78;5072018;28;47486;-81
2022/09/13 06:14:01;;;;;;;;;6.50;6.25;;;;;22.66;53.29;100091.09;5072773;28;47365;-77
2022/09/13 06:16:27;;;;;;;;;6.00;5.25;;;;;22.66;54.04;100087.59;5073252;28;45654;-78
2022/09/13 06:18:52;;;;;;;;;5.25;5.25;;;;;22.65;53.69;100084.09;5074614;27;45677;-78
2022/09/13 06:21:20;;;;;;;;;7.75;7.00;;;;;22.70;54.01;100091.50;5073244;27;45947;-79
2022/09/13 06:23:48;;;;;;;;;0.25;0.00;;;;;22.71;53.86;100087.81;5073900;27;45952;-78
2022/09/13 06:26:15;;;;;;;;;6.75;5.25;;;;;22.70;53.76;100080.81;5074751;27;45768;-79
2022/09/13 06:28:41;;;;;;;;;5.50;5.50;;;;;22.61;52.77;100042.81;5074572;27;45781;-77
2022/09/13 06:31:08;;;;;;;;;6.25;5.00;;;;;22.77;53.03;100065.69;5073395;27;46741;-79
2022/09/13 06:33:35;;;;;;;;;6.25;6.00;;;;;22.76;52.95;100056.03;5072800;27;46287;-79
2022/09/13 06:36:06;;;;;;;;;6.25;6.25;;;;;22.80;53.10;100049.25;5074067;27;45715;-79
2022/09/13 06:38:31;;;;;;;;;7.25;5.50;;;;;22.75;53.47;100043.69;5072299;28;45661;-79
2022/09/13 06:41:10;;;;;;;;;7.00;6.00;;;;;22.84;53.45;100050.47;5073293;27;46278;-77
2022/09/13 06:43:36;;;;;;;;;6.75;6.75;;;;;22.84;53.21;100056.66;5073810;27;45922;-78
2022/09/13 06:46:05;;;;;;;;;7.75;7.00;;;;;22.84;53.23;100037.13;5074013;28;45707;-78
2022/09/13 06:48:32;;;;;;;;;8.75;7.25;;;;;22.72;53.66;100012.88;5073946;28;45720;-81
2022/09/13 06:50:59;;;;;;;;;8.50;6.25;;;;;22.84;53.26;100026.44;5068468;27;45794;-83
2022/09/13 06:53:27;;;;;;;;;9.00;8.00;;;;;22.91;53.46;100032.63;5074115;27;45630;-82
2022/09/13 06:56:03;;;;;;;;;10.00;9.00;;;;;22.87;53.14;100010.84;5080531;27;45538;-83
2022/09/13 06:58:30;;;;;;;;;16.25;14.00;;;;;22.88;52.77;100004.47;5080755;27;45822;-84
2022/09/13 07:01:10;;;;;;;;;14.25;13.75;;;;;22.92;53.08;99999.53;5079759;27;46557;-83
2022/09/13 07:03:41;;;;;;;;;12.50;11.00;;;;;22.98;52.54;100004.06;5070510;28;46368;-84
2022/09/13 07:06:27;;;;;;;;;8.75;8.75;;;;;22.94;52.52;99995.63;5071740;28;45897;-81
2022/09/13 07:08:54;;;;;;;;;8.00;7.00;;;;;23.01;52.10;100003.66;5073831;27;45704;-82
2022/09/13 07:11:21;;;;;;;;;6.50;5.50;;;;;23.03;52.84;100001.59;5073073;27;45746;-82
2022/09/13 07:13:51;;;;;;;;;6.50;6.00;;;;;23.06;52.21;100003.84;5073961;28;45853;-82
2022/09/13 07:16:18;;;;;;;;;8.25;6.00;;;;;23.07;52.01;99997.50;5074496;27;45735;-81
2022/09/13 07:18:45;;;;;;;;;7.75;7.25;;;;;23.09;51.82;99990.09;5077452;27;45712;-80
2022/09/13 07:21:11;;;;;;;;;5.00;5.00;;;;;23.08;51.85;99983.09;5076144;27;46306;-82
2022/09/13 07:23:38;;;;;;;;;7.50;7.00;;;;;23.18;52.35;99988.84;5075047;27;45991;-81
2022/09/13 07:26:06;;;;;;;;;4.50;4.50;;;;;23.12;51.80;99984.31;5074935;27;46182;-82
2022/09/13 07:28:35;;;;;;;;;5.50;4.00;;;;;23.25;51.68;99987.00;5073813;27;46064;-82
2022/09/13 07:31:07;;;;;;;;;5.00;4.50;;;;;23.29;52.04;99996.25;5059957;28;45756;-81
2022/09/13 07:33:33;;;;;;;;;6.00;5.75;;;;;23.27;52.03;99987.59;5073967;27;46597;-82
2022/09/13 07:36:00;;;;;;;;;4.75;4.50;;;;;23.35;51.74;99992.75;5074357;28;46040;-81
2022/09/13 07:38:25;;;;;;;;;6.00;6.00;;;;;23.40;51.67;100000.16;5073710;27;45715;-82
2022/09/13 07:40:56;;;;;;;;;5.50;5.50;;;;;23.47;51.53;100006.38;5072735;28;45658;-83
2022/09/13 07:43:22;;;;;;;;;6.00;6.00;;;;;23.50;51.70;100002.44;5072919;27;45781;-82
2022/09/13 07:45:56;;;;;;;;;4.00;4.00;;;;;23.57;51.75;100006.75;5073585;27;45778;-81
2022/09/13 07:48:22;;;;;;;;;5.25;5.00;;;;;23.61;51.04;99999.97;5073244;27;45644;-82
2022/09/13 07:50:58;;;;;;;;;5.75;4.75;;;;;23.67;51.64;100009.00;5072468;27;46514;-83
2022/09/13 07:53:23;;;;;;;;;6.50;6.00;;;;;23.65;51.08;99998.50;5073037;27;46700;-83
2022/09/13 07:55:49;;;;;;;;;4.50;4.50;;;;;23.75;51.00;100000.78;5073348;27;45677;-82
2022/09/13 07:58:14;;;;;;;;;4.50;4.50;;;;;23.76;51.33;99995.19;5073381;27;45738;-83
2022/09/13 08:00:39;;;;;;;;;5.00;5.00;;;;;23.84;51.23;100004.84;5072748;27;45796;-83
2022/09/13 08:03:05;;;;;;;;;4.75;4.75;;;;;23.89;50.61;100007.72;5072726;27;45857;-84
2022/09/13 08:05:31;;;;;;;;;5.25;4.00;;;;;23.68;51.08;99971.34;5072137;28;45809;-84
2022/09/13 08:07:56;;;;;;;;;5.25;5.00;;;;;23.98;50.97;100008.31;5073910;27;45789;-83
2022/09/13 08:10:22;;;;;;;;;5.00;4.25;;;;;23.74;50.72;99957.13;5072625;27;46412;-82
2022/09/13 08:12:47;;;;;;;;;5.00;5.00;;;;;23.99;50.64;99997.41;5074950;27;45723;-82
2022/09/13 08:15:13;;;;;;;;;5.00;5.00;;;;;24.10;50.23;100007.44;5073429;27;45621;-81
2022/09/13 08:17:38;;;;;;;;;5.00;4.50;;;;;23.96;50.15;99981.78;5073994;27;45847;-84
2022/09/13 08:20:04;;;;;;;;;4.50;4.50;;;;;24.01;50.26;99979.28;5075528;27;45727;-84
2022/09/13 08:22:29;;;;;;;;;4.00;3.25;;;;;24.20;50.19;100002.50;5073135;27;45935;-85
2022/09/13 08:24:55;;;;;;;;;4.75;4.00;;;;;24.23;49.62;99995.91;5072952;27;45756;-85
2022/09/13 08:27:20;;;;;;;;;3.75;3.75;;;;;24.22;49.66;99992.41;5073098;27;45687;-84
2022/09/13 08:29:46;;;;;;;;;4.00;4.00;;;;;24.29;49.47;100002.28;5073533;28;45715;-83
2022/09/13 08:32:11;;;;;;;;;4.00;4.00;;;;;24.22;49.39;99983.56;5072848;27;45574;-82
2022/09/13 08:34:36;;;;;;;;;3.25;3.25;;;;;24.29;49.83;99991.56;5074574;27;45673;-84
2022/09/13 08:37:02;;;;;;;;;4.00;4.00;;;;;24.37;49.53;100005.50;5073282;27;45644;-80
2022/09/13 08:39:27;;;;;;;;;3.75;3.75;;;;;24.28;49.94;99990.72;5072723;27;45726;-81
2022/09/13 08:42:06;;;;;;;;;4.50;4.00;;;;;24.38;49.64;100003.66;5071908;27;45816;-82
2022/09/13 08:44:36;;;;;;;;;6.00;5.50;;;;;24.43;49.54;100014.56;5073635;27;45596;-80
2022/09/13 08:47:23;;;;;;;;;5.25;5.25;;;;;24.48;49.06;100031.63;5073610;27;45665;-81
2022/09/13 08:49:52;;;;;;;;;5.00;4.00;;;;;24.50;49.43;100026.91;5073823;28;46640;-84
2022/09/13 08:52:46;;;;;;;;;6.25;6.25;;;;;24.48;49.72;100020.09;5074758;27;45840;-84
2022/09/13 08:55:24;;;;;;;;;6.50;5.00;;;;;24.61;49.38;100033.44;5073540;27;45720;-79
2022/09/13 08:58:21;;;;;;;;;5.25;4.25;;;;;24.63;49.18;100034.84;5072610;28;45697;-81
2022/09/13 09:01:01;;;;;;;;;6.00;4.75;;;;;24.67;48.90;100038.72;5073138;28;46737;-82
2022/09/13 09:03:36;;;;;;;;;6.00;5.00;;;;;24.63;49.50;100025.97;5072208;28;46017;-79
2022/09/13 09:06:02;;;;;;;;;6.00;4.25;;;;;24.71;49.14;100036.47;5073095;27;45687;-81
2022/09/13 09:08:39;;;;;;;;;6.25;5.25;;;;;24.72;48.92;100029.25;5074243;27;45611;-82
2022/09/13 09:11:14;;;;;;;;;5.00;5.00;;;;;24.68;49.23;100032.34;5074774;28;46321;-83
2022/09/13 09:14:06;;;;;;;;;5.50;5.50;;;;;24.84;48.85;100059.66;5072811;27;45697;-83
2022/09/13 09:16:47;;;;;;;;;6.00;5.00;;;;;24.85;48.88;100072.88;5049786;28;45654;-80
2022/09/13 09:19:24;;;;;;;;;5.50;5.50;;;;;24.89;48.78;100066.06;5050544;28;45847;-83
2022/09/13 09:21:51;;;;;;;;;6.00;5.00;;;;;24.92;48.93;100056.78;5051911;28;45779;-84
2022/09/13 09:24:24;;;;;;;;;4.25;4.00;;;;;24.93;49.79;100064.63;5053174;28;45865;-82
2022/09/13 09:26:56;;;;;;;;;5.50;5.25;;;;;24.88;49.97;100058.25;5053327;28;45742;-81
2022/09/13 09:29:32;;;;;;;;;5.50;4.00;;;;;24.80;50.11;100035.16;5053301;28;45768;-82
2022/09/13 09:32:15;;;;;;;;;5.50;5.00;;;;;24.96;50.68;100058.81;5052744;28;46916;-82
2022/09/13 09:34:59;;;;;;;;;4.00;3.50;;;;;24.96;50.52;100064.16;5053252;28;46234;-81
2022/09/13 09:37:28;;;;;;;;;7.00;5.75;;;;;24.95;50.86;100059.00;5044594;28;45869;-80
2022/09/13 09:40:02;;;;;;;;;5.50;4.50;;;;;25.02;50.57;100065.16;5057354;28;45733;-79
2022/09/13 09:42:32;;;;;;;;;7.00;6.50;;;;;25.02;50.36;100057.13;5055917;28;46364;-83
2022/09/13 09:45:05;;;;;;;;;5.00;5.00;;;;;25.06;51.19;100069.88;5052604;28;46139;-81
2022/09/13 09:47:41;;;;;;;;;5.00;5.00;;;;;25.08;51.00;100075.03;5052784;28;45873;-84
2022/09/13 09:50:10;;;;;;;;;7.00;6.25;;;;;25.10;51.41;100082.88;5052160;28;45886;-84
2022/09/13 09:52:58;;;;;;;;;6.00;5.50;;;;;25.11;51.45;100073.75;5055695;28;46436;-84
2022/09/13 09:55:36;;;;;;;;;12.25;9.50;;;;;25.09;51.78;100068.63;5074521;28;45712;-80
2022/09/13 09:58:07;;;;;;;;;8.50;7.00;;;;;25.06;51.99;100064.50;5075027;27;45599;-81
2022/09/13 10:00:35;;;;;;;;;8.00;7.25;;;;;25.07;52.10;100068.03;5075323;27;45787;-82
2022/09/13 10:03:15;;;;;;;;;8.75;8.00;;;;;25.08;52.14;100069.66;5075681;27;45639;-81
2022/09/13 10:05:42;;;;;;;;;7.25;5.50;;;;;25.14;52.12;100079.53;5074859;27;46039;-83
2022/09/13 10:08:25;;;;;;;;;6.25;6.00;;;;;25.15;51.42;100075.00;5074847;27;46013;-81
2022/09/13 10:10:59;;;;;;;;;5.75;5.00;;;;;25.19;51.70;100079.69;5074894;27;45887;-83
2022/09/13 10:13:25;;;;;;;;;9.00;7.00;;;;;25.23;51.88;100078.22;5064373;28;46377;-82
2022/09/13 10:15:57;;;;;;;;;0.00;0.00;;;;;25.27;51.49;100081.28;5077390;28;45649;-81
2022/09/13 10:18:24;;;;;;;;;6.00;5.75;;;;;25.27;51.17;100078.59;5077344;27;45717;-81
2022/09/13 10:21:02;;;;;;;;;6.00;6.00;;;;;25.34;51.18;100082.88;5074667;28;45619;-83
2022/09/13 10:23:28;;;;;;;;;5.75;5.50;;;;;25.38;51.21;100084.09;5074773;27;45663;-81
2022/09/13 10:26:02;;;;;;;;;5.25;5.25;;;;;25.42;50.46;100071.06;5074299;27;46104;-84
2022/09/13 10:28:31;;;;;;;;;6.00;6.00;;;;;25.37;50.26;100066.34;5074413;27;45791;-82
2022/09/13 10:31:18;;;;;;;;;5.00;5.00;;;;;25.36;50.05;100074.63;5072388;28;46048;-83
2022/09/13 10:33:50;;;;;;;;;6.50;5.00;;;;;25.45;49.89;100078.69;5074404;27;46375;-81
2022/09/13 10:36:33;;;;;;;;;5.75;5.50;;;;;25.45;49.49;100082.19;5074504;27;46334;-81
2022/09/13 10:39:16;;;;;;;;;7.00;5.75;;;;;25.45;49.34;100066.09;5074502;27;45729;-81
2022/09/13 10:41:47;;;;;;;;;4.50;4.50;;;;;25.46;49.23;100074.97;5073812;28;46101;-83
2022/09/13 10:44:50;;;;;;;;;4.00;4.00;;;;;25.49;49.55;100064.59;5074230;27;46386;-83
2022/09/13 10:47:32;;;;;;;;;6.50;5.75;;;;;25.49;49.87;100053.03;5051580;28;45893;-82
2022/09/13 10:50:27;;;;;;;;;4.75;4.75;;;;;25.54;49.48;100050.53;5051009;28;46230;-83
2022/09/13 10:52:54;;;;;;;;;5.00;5.00;;;;;25.58;49.14;100053.63;5052005;28;45736;-83
2022/09/13 10:55:30;;;;;;;;;6.50;5.25;;;;;25.65;48.93;100055.19;5051312;28;47687;-82
2022/09/13 10:58:16;;;;;;;;;7.00;7.00;;;;;25.72;49.01;100052.47;5051869;28;46371;-85
2022/09/13 11:01:02;;;;;;;;;6.00;6.00;;;;;25.77;48.51;100049.94;5034244;28;45727;-82
2022/09/13 11:04:12;;;;;;;;;6.50;6.50;;;;;25.80;48.08;100044.13;5051164;28;45719;-83
2022/09/13 11:06:49;;;;;;;;;5.75;5.00;;;;;25.85;48.52;100037.06;5036410;28;48380;-83
2022/09/13 11:09:40;;;;;;;;;4.00;4.00;;;;;25.88;47.92;100047.34;5035352;28;48104;-82
2022/09/13 11:12:34;;;;;;;;;3.25;3.25;;;;;25.92;47.53;100040.47;5041599;28;45727;-83
2022/09/13 11:15:06;;;;;;;;;4.25;4.00;;;;;25.98;47.70;100046.81;5024225;28;46170;-82
2022/09/13 11:18:09;;;;;;;;;4.00;4.00;;;;;26.02;47.81;100045.31;5051317;28;45777;-81
2022/09/13 11:20:37;;;;;;;;;5.25;5.25;;;;;26.07;47.58;100042.81;5043940;28;46065;-84
2022/09/13 11:23:16;;;;;;;;;6.00;5.25;;;;;26.13;47.07;100046.44;5064964;28;45697;-86
2022/09/13 11:26:11;;;;;;;;;5.00;5.00;;;;;26.19;47.69;100038.31;5074441;28;45781;-82
2022/09/13 11:29:19;;;;;;;;;5.00;4.75;;;;;26.26;47.39;100043.66;5073935;27;45665;-83
2022/09/13 11:32:08;;;;;;;;;6.00;5.50;;;;;26.31;47.55;100023.13;5073235;27;46394;-81
2022/09/13 11:34:57;;;;;;;;;5.25;5.00;;;;;26.38;46.63;100023.06;5071313;28;45739;-80
2022/09/13 11:37:46;;;;;;;;;6.00;5.00;;;;;26.41;46.90;100025.28;5074467;27;45892;-83
2022/09/13 11:40:23;;;;;;;;;8.00;7.00;;;;;26.44;46.36;100024.00;5073831;28;45578;-82
2022/09/13 11:42:48;;;;;;;;;5.75;5.00;;;;;26.47;46.58;100031.59;5073916;27;46169;-81
2022/09/13 11:45:21;;;;;;;;;5.00;5.00;;;;;26.51;46.19;100035.47;5074727;27;45680;-79
2022/09/13 11:47:52;;;;;;;;;5.00;5.00;;;;;26.56;46.54;100030.28;5073532;27;45842;-83
2022/09/13 11:50:55;;;;;;;;;4.25;4.25;;;;;26.60;46.17;100026.91;5072491;27;45870;-80
2022/09/13 11:53:41;;;;;;;;;4.25;3.50;;;;;26.65;46.05;100012.78;5073069;28;47329;-82